An Run Da 2 — BHNX — position and weather

sailwx.info

Track history (hours):
 
Tides and Currents Weather Stations Pressure Air Temp Water Temp Dewpoint Dewpoint Depression Visibility Wind Speed Wind Dir Waves Ship Positions

An Run Da 2

Last reported at 2015-Jul-30 15:06 UTC. Time now 2015-Jul-31 23:24 UTC.
Position N 31°58' E 120°02'.

Length 147 m; draft 8.4 m.

Type: Cargo ship. MMSI: 413360230.

Date/timePositionNaut miles runAvg speedWind from/ knotsBaromVisibWave heightAir tempDewpointWater temp
2015-Jul-30 15:06N 31°58' E 120°02'10 6.3
2015-Jul-30 13:31N 31°56' E 120°13'6 6.0
2015-Jul-30 12:31N 31°59' E 120°20'6 6.2
2015-Jul-30 11:28N 32°03' E 120°25'6 6.5
2015-Jul-30 10:33N 32°03' E 120°33'8 6.5
2015-Jul-30 09:23N 32°00' E 120°40'6 7.3
2015-Jul-30 08:31N 32°01' E 120°48'7 7.6
2015-Jul-30 07:33N 31°55' E 120°53'8 8.1
2015-Jul-30 06:33N 31°47' E 120°57'9 8.5
2015-Jul-30 05:32N 31°44' E 121°06'1010.3
2015-Jul-30 04:33N 31°38' E 121°15'1010.2
2015-Jul-30 03:33N 31°31' E 121°24'1010.4
2015-Jul-30 02:33N 31°24' E 121°33'10 9.6
2015-Jul-30 01:33N 31°19' E 121°43'10 9.8
2015-Jul-30 00:33N 31°16' E 121°54'10 9.7
2015-Jul-29 23:33N 31°14' E 122°05'7 7.3
2015-Jul-29 22:33N 31°10' E 122°12'7 6.5
2015-Jul-29 21:33N 31°06' E 122°19'9 9.1
2015-Jul-29 20:33N 31°06' E 122°29'7 6.8
2015-Jul-29 19:33N 30°60' E 122°33'8 7.8
2015-Jul-29 18:32N 30°53' E 122°30'8 7.6
2015-Jul-29 17:30N 30°50' E 122°21'910.0
2015-Jul-29 16:33N 30°42' E 122°16'1110.7
2015-Jul-29 15:29N 30°32' E 122°10'9 9.7
2015-Jul-29 14:32N 30°27' E 122°01'9 8.9
2015-Jul-29 13:29N 30°22' E 121°52'2510.6
2015-Jul-29 11:10N 29°58' E 121°59'910.8
2015-Jul-29 10:20N 29°55' E 122°09'5 6.7
2015-Jul-29 09:34N 29°50' E 122°11'0 0.1
2015-Jul-29 07:09N 29°51' E 122°10'16 1.0
2015-Jul-28 15:28N 29°56' E 121°53'0 0.0
2015-Jul-28 03:21N 29°56' E 121°53'0 0.0
2015-Jul-28 02:19N 29°56' E 121°53'3 4.1
2015-Jul-28 01:33N 29°58' E 121°56'3 2.4
2015-Jul-28 00:27N 29°59' E 121°59'0 0.0
2015-Jul-27 23:33N 29°59' E 121°59'0 0.1
2015-Jul-27 22:33N 29°59' E 121°59'0 0.1
2015-Jul-27 21:30N 29°59' E 121°59'0 0.1
2015-Jul-27 19:24N 29°59' E 121°59'0 0.1
2015-Jul-27 18:04N 29°59' E 121°59'0 0.0
2015-Jul-27 17:28N 29°59' E 121°59'0 0.0
2015-Jul-27 16:29N 29°59' E 121°59'0 0.1
2015-Jul-27 15:29N 29°59' E 121°59'0 0.0
2015-Jul-27 14:28N 29°59' E 121°59'0 0.0
2015-Jul-27 13:28N 29°59' E 121°59'0 0.2
2015-Jul-27 12:28N 29°59' E 121°59'0 0.1
2015-Jul-27 11:31N 29°59' E 121°59'0 0.0
2015-Jul-27 10:25N 29°59' E 121°59'0 0.0
2015-Jul-27 09:30N 29°59' E 121°59'1 1.3
2015-Jul-27 08:33N 29°59' E 122°00'9 8.7
2015-Jul-27 07:33N 29°55' E 122°10'1110.8
2015-Jul-27 06:33N 29°47' E 122°17'10 9.5
2015-Jul-27 05:29N 29°37' E 122°21'1110.7
2015-Jul-27 04:30N 29°27' E 122°21'  
2015-Jul-23 13:13N 29°21' E 122°30'23 7.9
2015-Jul-23 10:20N 29°43' E 122°38'6 7.9
2015-Jul-23 09:31N 29°50' E 122°39'53 8.3
2015-Jul-23 03:10N 30°42' E 122°37'27 8.8
2015-Jul-23 00:08N 31°06' E 122°21'711.6
2015-Jul-22 23:33N 31°08' E 122°14'1312.6
2015-Jul-22 22:33N 31°14' E 122°01'1111.0
2015-Jul-22 21:33N 31°17' E 121°49'9 9.0
2015-Jul-22 20:33N 31°21' E 121°39'8 8.4
2015-Jul-22 19:33N 31°25' E 121°31'9 9.1
2015-Jul-22 18:33N 31°31' E 121°23'1110.5
2015-Jul-22 17:33N 31°38' E 121°14'1312.3
2015-Jul-22 16:28N 31°46' E 121°02'1010.9
2015-Jul-22 15:33N 31°53' E 120°53'1110.7
2015-Jul-22 14:33N 32°00' E 120°43'1110.5
2015-Jul-22 13:28N 32°04' E 120°31'8 7.7
2015-Jul-22 12:29N 32°01' E 120°23'1010.5
2015-Jul-22 11:32N 31°56' E 120°13'1311.3
2015-Jul-22 10:24N 32°00' E 119°59'  
Track history (hours):
 
Tides and Currents Weather Stations Pressure Air Temp Water Temp Dewpoint Dewpoint Depression Visibility Wind Speed Wind Dir Waves Ship Positions

An Run Da 2

Last reported at 2015-Jul-30 15:06 UTC. Time now 2015-Jul-31 23:24 UTC.
Position N 31°58' E 120°02'.

Length 147 m; draft 8.4 m.

Type: Cargo ship. MMSI: 413360230.

Date/timePositionNaut miles runAvg speedWind from/ knotsBaromVisibWave heightAir tempDewpointWater temp
2015-Jul-30 15:06N 31°58' E 120°02'10 6.3
2015-Jul-30 13:31N 31°56' E 120°13'6 6.0
2015-Jul-30 12:31N 31°59' E 120°20'6 6.2
2015-Jul-30 11:28N 32°03' E 120°25'6 6.5
2015-Jul-30 10:33N 32°03' E 120°33'8 6.5
2015-Jul-30 09:23N 32°00' E 120°40'6 7.3
2015-Jul-30 08:31N 32°01' E 120°48'7 7.6
2015-Jul-30 07:33N 31°55' E 120°53'8 8.1
2015-Jul-30 06:33N 31°47' E 120°57'9 8.5
2015-Jul-30 05:32N 31°44' E 121°06'1010.3
2015-Jul-30 04:33N 31°38' E 121°15'1010.2
2015-Jul-30 03:33N 31°31' E 121°24'1010.4
2015-Jul-30 02:33N 31°24' E 121°33'10 9.6
2015-Jul-30 01:33N 31°19' E 121°43'10 9.8
2015-Jul-30 00:33N 31°16' E 121°54'10 9.7
2015-Jul-29 23:33N 31°14' E 122°05'7 7.3
2015-Jul-29 22:33N 31°10' E 122°12'7 6.5
2015-Jul-29 21:33N 31°06' E 122°19'9 9.1
2015-Jul-29 20:33N 31°06' E 122°29'7 6.8
2015-Jul-29 19:33N 30°60' E 122°33'8 7.8
2015-Jul-29 18:32N 30°53' E 122°30'8 7.6
2015-Jul-29 17:30N 30°50' E 122°21'910.0
2015-Jul-29 16:33N 30°42' E 122°16'1110.7
2015-Jul-29 15:29N 30°32' E 122°10'9 9.7
2015-Jul-29 14:32N 30°27' E 122°01'9 8.9
2015-Jul-29 13:29N 30°22' E 121°52'2510.6
2015-Jul-29 11:10N 29°58' E 121°59'910.8
2015-Jul-29 10:20N 29°55' E 122°09'5 6.7
2015-Jul-29 09:34N 29°50' E 122°11'0 0.1
2015-Jul-29 07:09N 29°51' E 122°10'16 1.0
2015-Jul-28 15:28N 29°56' E 121°53'0 0.0
2015-Jul-28 03:21N 29°56' E 121°53'0 0.0
2015-Jul-28 02:19N 29°56' E 121°53'3 4.1
2015-Jul-28 01:33N 29°58' E 121°56'3 2.4
2015-Jul-28 00:27N 29°59' E 121°59'0 0.0
2015-Jul-27 23:33N 29°59' E 121°59'0 0.1
2015-Jul-27 22:33N 29°59' E 121°59'0 0.1
2015-Jul-27 21:30N 29°59' E 121°59'0 0.1
2015-Jul-27 19:24N 29°59' E 121°59'0 0.1
2015-Jul-27 18:04N 29°59' E 121°59'0 0.0
2015-Jul-27 17:28N 29°59' E 121°59'0 0.0
2015-Jul-27 16:29N 29°59' E 121°59'0 0.1
2015-Jul-27 15:29N 29°59' E 121°59'0 0.0
2015-Jul-27 14:28N 29°59' E 121°59'0 0.0
2015-Jul-27 13:28N 29°59' E 121°59'0 0.2
2015-Jul-27 12:28N 29°59' E 121°59'0 0.1
2015-Jul-27 11:31N 29°59' E 121°59'0 0.0
2015-Jul-27 10:25N 29°59' E 121°59'0 0.0
2015-Jul-27 09:30N 29°59' E 121°59'1 1.3
2015-Jul-27 08:33N 29°59' E 122°00'9 8.7
2015-Jul-27 07:33N 29°55' E 122°10'1110.8
2015-Jul-27 06:33N 29°47' E 122°17'10 9.5
2015-Jul-27 05:29N 29°37' E 122°21'1110.7
2015-Jul-27 04:30N 29°27' E 122°21'  
2015-Jul-23 13:13N 29°21' E 122°30'23 7.9
2015-Jul-23 10:20N 29°43' E 122°38'6 7.9
2015-Jul-23 09:31N 29°50' E 122°39'53 8.3
2015-Jul-23 03:10N 30°42' E 122°37'27 8.8
2015-Jul-23 00:08N 31°06' E 122°21'711.6
2015-Jul-22 23:33N 31°08' E 122°14'1312.6
2015-Jul-22 22:33N 31°14' E 122°01'1111.0
2015-Jul-22 21:33N 31°17' E 121°49'9 9.0
2015-Jul-22 20:33N 31°21' E 121°39'8 8.4
2015-Jul-22 19:33N 31°25' E 121°31'9 9.1
2015-Jul-22 18:33N 31°31' E 121°23'1110.5
2015-Jul-22 17:33N 31°38' E 121°14'1312.3
2015-Jul-22 16:28N 31°46' E 121°02'1010.9
2015-Jul-22 15:33N 31°53' E 120°53'1110.7
2015-Jul-22 14:33N 32°00' E 120°43'1110.5
2015-Jul-22 13:28N 32°04' E 120°31'8 7.7
2015-Jul-22 12:29N 32°01' E 120°23'1010.5
2015-Jul-22 11:32N 31°56' E 120°13'1311.3
2015-Jul-22 10:24N 32°00' E 119°59'  

Dump ship's entire track history